createdAt,value
2018-02-19T00:02:23.829Z,21.96
2018-02-19T00:04:50.392Z,21.99
2018-02-19T00:07:16.988Z,22.00
2018-02-19T00:09:43.569Z,22.01
2018-02-19T00:12:10.159Z,21.99
2018-02-19T00:14:36.864Z,21.92
2018-02-19T00:17:03.476Z,21.96
2018-02-19T00:19:30.054Z,21.98
2018-02-19T00:21:56.671Z,22.01
2018-02-19T00:24:23.242Z,22.01
2018-02-19T00:26:49.899Z,22.12
2018-02-19T00:29:16.576Z,22.22
2018-02-19T00:31:43.156Z,22.33
2018-02-19T00:34:09.719Z,22.33
2018-02-19T00:36:36.337Z,22.18
2018-02-19T00:39:02.945Z,22.09
2018-02-19T00:41:29.517Z,22.08
2018-02-19T00:43:56.135Z,21.99
2018-02-19T00:46:22.707Z,21.92
2018-02-19T00:48:49.311Z,21.86
2018-02-19T00:51:15.891Z,21.91
2018-02-19T00:53:42.512Z,21.89
2018-02-19T00:56:09.118Z,21.86
2018-02-19T00:58:35.723Z,21.80
2018-02-19T01:01:02.375Z,21.82
2018-02-19T01:03:28.950Z,21.78
2018-02-19T01:05:55.602Z,21.85
2018-02-19T01:08:22.248Z,21.75
2018-02-19T01:10:48.824Z,21.79
2018-02-19T01:13:15.396Z,21.73
2018-02-19T01:15:42.012Z,21.69
2018-02-19T01:18:08.589Z,21.69
2018-02-19T01:20:35.223Z,21.70
2018-02-19T01:23:01.810Z,21.67
2018-02-19T01:25:28.395Z,21.65
2018-02-19T01:27:54.979Z,21.62
2018-02-19T01:30:21.598Z,21.63
2018-02-19T01:32:48.226Z,21.59
2018-02-19T01:35:14.791Z,21.57
2018-02-19T01:37:41.419Z,21.55
2018-02-19T01:40:07.979Z,21.55
2018-02-19T01:42:34.546Z,21.53
2018-02-19T01:45:01.176Z,21.49
2018-02-19T01:47:27.743Z,21.49
2018-02-19T01:49:54.335Z,21.48
2018-02-19T01:52:20.918Z,21.46
2018-02-19T01:54:47.478Z,21.40
2018-02-19T01:57:14.078Z,21.43
2018-02-19T01:59:40.689Z,21.43
2018-02-19T02:02:07.202Z,21.39
2018-02-19T02:04:33.780Z,21.37
2018-02-19T02:07:00.412Z,21.34
2018-02-19T02:09:27.026Z,21.31
2018-02-19T02:11:53.648Z,21.32
2018-02-19T02:14:20.218Z,21.29
2018-02-19T02:16:46.883Z,21.28
2018-02-19T02:19:13.461Z,21.26
2018-02-19T02:21:40.024Z,21.27
2018-02-19T02:24:06.601Z,21.22
2018-02-19T02:26:33.165Z,21.19
2018-02-19T02:28:59.772Z,21.18
2018-02-19T02:31:26.339Z,21.19
2018-02-19T02:33:52.945Z,21.20
2018-02-19T02:36:19.554Z,21.13
2018-02-19T02:38:46.126Z,21.15
2018-02-19T02:41:12.755Z,21.12
2018-02-19T02:43:39.350Z,21.11
2018-02-19T02:46:05.937Z,21.07
2018-02-19T02:48:32.498Z,21.06
2018-02-19T02:50:59.070Z,21.05
2018-02-19T02:53:25.686Z,21.06
2018-02-19T02:55:52.283Z,21.00
2018-02-19T02:58:18.870Z,20.97
2018-02-19T03:00:45.435Z,20.99
2018-02-19T03:03:12.063Z,20.94
2018-02-19T03:05:38.630Z,20.93
2018-02-19T03:08:05.206Z,20.90
2018-02-19T03:10:31.766Z,20.91
2018-02-19T03:12:58.390Z,20.86
2018-02-19T03:15:24.978Z,20.84
2018-02-19T03:17:51.539Z,20.83
2018-02-19T03:20:18.118Z,20.83
2018-02-19T03:22:44.791Z,20.85
2018-02-19T03:25:11.431Z,20.79
2018-02-19T03:27:38.060Z,20.81
2018-02-19T03:30:04.628Z,20.77
2018-02-19T03:32:31.210Z,20.77
2018-02-19T03:34:57.847Z,20.71
2018-02-19T03:37:24.423Z,20.71
2018-02-19T03:39:50.986Z,20.73
2018-02-19T03:42:17.619Z,20.68
2018-02-19T03:44:44.340Z,20.77
2018-02-19T03:47:10.988Z,20.70
2018-02-19T03:49:37.557Z,20.66
2018-02-19T03:52:04.149Z,20.66
2018-02-19T03:54:30.817Z,20.65
2018-02-19T03:56:57.406Z,20.62
2018-02-19T03:59:23.961Z,20.58
2018-02-19T04:01:50.553Z,20.61
2018-02-19T04:04:17.155Z,20.57
2018-02-19T04:06:43.780Z,20.60
2018-02-19T04:09:10.346Z,20.83
2018-02-19T04:11:36.953Z,20.54
2018-02-19T04:14:03.542Z,21.37
2018-02-19T04:16:30.136Z,22.29
2018-02-19T04:18:56.745Z,22.28
2018-02-19T04:21:23.369Z,22.38
2018-02-19T04:23:49.995Z,22.50
2018-02-19T04:26:16.576Z,22.52
2018-02-19T04:28:43.204Z,22.11
2018-02-19T04:31:09.808Z,22.05
2018-02-19T04:33:36.427Z,21.63
2018-02-19T04:36:03.077Z,21.28
2018-02-19T04:38:29.656Z,21.04
2018-02-19T04:40:56.294Z,20.90
2018-02-19T04:43:22.976Z,20.82
2018-02-19T04:45:49.555Z,20.79
2018-02-19T04:48:16.234Z,20.73
2018-02-19T04:50:42.927Z,20.76
2018-02-19T04:53:09.502Z,20.76
2018-02-19T04:55:36.084Z,20.70
2018-02-19T04:58:02.718Z,20.66
2018-02-19T05:00:29.302Z,20.62
2018-02-19T05:02:55.902Z,20.66
2018-02-19T05:05:22.562Z,20.68
2018-02-19T05:07:49.216Z,20.62
2018-02-19T05:10:15.813Z,20.65
2018-02-19T05:12:42.463Z,20.61
2018-02-19T05:15:09.045Z,20.64
2018-02-19T05:17:35.698Z,20.65
2018-02-19T05:20:02.290Z,20.61
2018-02-19T05:22:28.911Z,20.65
2018-02-19T05:24:55.483Z,20.75
2018-02-19T05:27:22.122Z,20.77
2018-02-19T05:29:48.746Z,20.81
2018-02-19T05:32:15.349Z,20.66
2018-02-19T05:34:41.968Z,20.69
2018-02-19T05:37:08.673Z,20.78
2018-02-19T05:39:35.233Z,20.51
2018-02-19T05:42:01.807Z,20.56
2018-02-19T05:44:28.405Z,20.55
2018-02-19T05:46:55.126Z,20.90
2018-02-19T05:49:21.737Z,21.00
2018-02-19T05:51:48.298Z,21.05
2018-02-19T05:54:14.880Z,21.05
2018-02-19T05:56:41.514Z,21.12
2018-02-19T05:59:08.085Z,21.10
2018-02-19T06:01:34.698Z,21.10
2018-02-19T06:04:01.257Z,21.10
2018-02-19T06:06:27.816Z,21.08
2018-02-19T06:08:54.425Z,21.08
2018-02-19T06:11:21.003Z,21.00
2018-02-19T06:13:47.662Z,21.01
2018-02-19T06:16:14.282Z,20.96
2018-02-19T06:18:40.920Z,21.06
2018-02-19T06:21:07.486Z,21.04
2018-02-19T06:23:34.084Z,21.04
2018-02-19T06:26:00.663Z,21.07
2018-02-19T06:28:27.282Z,21.04
2018-02-19T06:30:53.874Z,20.95
2018-02-19T06:33:20.512Z,21.03
2018-02-19T06:35:47.126Z,21.38
2018-02-19T06:38:13.692Z,21.62
2018-02-19T06:40:40.259Z,21.43
2018-02-19T06:43:06.883Z,21.44
2018-02-19T06:45:33.463Z,21.29
2018-02-19T06:48:00.119Z,21.48
2018-02-19T06:50:26.747Z,21.96
2018-02-19T06:52:53.350Z,21.68
2018-02-19T06:55:19.969Z,22.07
2018-02-19T06:57:46.586Z,22.01
2018-02-19T07:00:13.209Z,21.98
2018-02-19T07:02:39.873Z,22.23
2018-02-19T07:05:06.446Z,22.06
2018-02-19T07:07:33.222Z,22.19
2018-02-19T07:09:59.847Z,22.14
2018-02-19T07:12:26.432Z,22.01
2018-02-19T07:14:53.055Z,22.20
2018-02-19T07:17:19.685Z,22.23
2018-02-19T07:19:46.312Z,22.19
2018-02-19T07:22:12.925Z,22.17
2018-02-19T07:24:39.563Z,21.90
2018-02-19T07:27:06.163Z,21.80
2018-02-19T07:29:32.753Z,21.87
2018-02-19T07:31:59.343Z,22.10
2018-02-19T07:34:25.976Z,22.15
2018-02-19T07:36:52.610Z,22.15
2018-02-19T07:39:19.253Z,22.10
2018-02-19T07:41:45.881Z,22.03
2018-02-19T07:44:12.746Z,22.18
2018-02-19T07:46:39.350Z,22.15
2018-02-19T07:49:05.938Z,22.15
2018-02-19T07:51:33.525Z,22.12
2018-02-19T07:54:00.271Z,22.14
2018-02-19T07:56:26.849Z,22.10
2018-02-19T07:58:53.444Z,22.15
2018-02-19T08:01:20.134Z,22.12
2018-02-19T08:03:46.741Z,21.80
2018-02-19T08:06:13.431Z,21.83
2018-02-19T08:08:40.033Z,22.18
2018-02-19T08:11:06.766Z,22.22
2018-02-19T08:13:33.356Z,22.28
2018-02-19T08:15:59.935Z,22.28
2018-02-19T08:18:26.507Z,22.33
2018-02-19T08:20:53.146Z,22.34
2018-02-19T08:23:19.797Z,22.42
2018-02-19T08:25:46.437Z,22.37
2018-02-19T08:28:13.023Z,22.55
2018-02-19T08:30:43.618Z,22.77
2018-02-19T08:33:14.893Z,23.25
2018-02-19T08:35:41.649Z,22.69
2018-02-19T08:38:17.603Z,22.65
2018-02-19T08:40:47.665Z,22.71
2018-02-19T08:43:14.306Z,22.74
2018-02-19T08:45:43.699Z,22.79
2018-02-19T08:48:21.146Z,22.68
2018-02-19T10:37:38.027Z,23.39
2018-02-19T10:40:16.349Z,23.83
2018-02-19T10:42:50.070Z,23.95
2018-02-19T10:45:16.644Z,23.65
2018-02-19T10:47:43.997Z,23.45
2018-02-19T10:50:12.769Z,23.73
2018-02-19T10:52:39.462Z,23.58
2018-02-19T10:55:06.063Z,23.16
2018-02-19T10:57:32.725Z,23.34
2018-02-19T10:59:59.851Z,22.96
2018-02-19T11:02:27.376Z,23.30
2018-02-19T11:04:53.068Z,23.57
2018-02-19T11:07:19.630Z,23.40
2018-02-19T11:09:46.253Z,23.58
2018-02-19T11:12:12.879Z,23.72
2018-02-19T11:14:39.509Z,23.84
2018-02-19T11:17:06.116Z,23.72
2018-02-19T11:19:32.760Z,23.56
2018-02-19T11:21:59.336Z,23.78
2018-02-19T11:24:25.942Z,23.89
2018-02-19T11:26:52.502Z,24.16
2018-02-19T11:29:19.124Z,22.85
2018-02-19T11:31:45.716Z,22.88
2018-02-19T11:34:27.206Z,23.28
2018-02-19T11:36:53.956Z,23.27
2018-02-19T11:39:20.523Z,23.46
2018-02-19T11:41:47.145Z,23.26
2018-02-19T11:44:13.915Z,23.35
2018-02-19T11:46:40.538Z,23.36
2018-02-19T11:49:07.252Z,23.32
2018-02-19T11:51:33.810Z,23.25
2018-02-19T11:54:00.436Z,23.59
2018-02-19T11:56:27.048Z,23.56
2018-02-19T11:58:53.700Z,23.53
2018-02-19T12:01:20.327Z,23.51
2018-02-19T12:03:46.919Z,23.64
2018-02-19T12:06:13.508Z,23.94
2018-02-19T12:08:40.215Z,24.23
2018-02-19T12:11:06.988Z,24.26
2018-02-19T12:13:33.555Z,24.19
2018-02-19T12:16:00.366Z,24.18
2018-02-19T12:18:27.065Z,24.29
2018-02-19T12:20:53.644Z,24.25
2018-02-19T12:23:20.229Z,24.28
2018-02-19T12:25:46.863Z,24.34
2018-02-19T12:28:13.452Z,24.40
2018-02-19T12:30:45.964Z,24.37
2018-02-19T12:33:12.816Z,24.34
2018-02-19T12:35:39.546Z,24.14
2018-02-19T12:38:06.211Z,24.10
2018-02-19T12:40:32.860Z,24.02
2018-02-19T12:42:59.476Z,24.68
2018-02-19T12:45:26.297Z,24.34
2018-02-19T12:50:47.084Z,24.74
2018-02-19T12:56:05.719Z,24.79
2018-02-19T13:04:12.866Z,24.50
2018-02-19T13:06:55.187Z,24.34
2018-02-19T13:09:21.912Z,24.50
2018-02-19T13:11:50.137Z,24.42
2018-02-19T13:14:16.758Z,24.12
2018-02-19T13:16:43.328Z,24.23
2018-02-19T13:19:09.919Z,24.22
2018-02-19T13:21:38.663Z,24.16
2018-02-19T13:24:05.882Z,24.34
2018-02-19T13:26:32.709Z,24.41
2018-02-19T13:31:45.479Z,24.19
2018-02-19T13:34:28.338Z,24.38
2018-02-19T13:36:55.046Z,24.14
2018-02-19T13:42:27.752Z,24.54
2018-02-19T13:50:27.327Z,24.45
2018-02-19T13:52:53.930Z,24.62
2018-02-19T13:55:20.702Z,24.56
2018-02-19T13:57:54.574Z,24.28
2018-02-19T14:00:21.397Z,24.01
2018-02-19T14:02:48.005Z,24.27
2018-02-19T14:05:14.706Z,24.13
2018-02-19T14:07:41.426Z,24.23
2018-02-19T14:10:08.422Z,24.42
2018-02-19T14:12:35.355Z,24.44
2018-02-19T14:15:01.926Z,24.50
2018-02-19T14:17:28.539Z,24.29
2018-02-19T14:19:55.230Z,24.25
2018-02-19T14:22:21.837Z,24.04
2018-02-19T14:24:48.512Z,24.10
2018-02-19T14:27:15.096Z,23.98
2018-02-19T14:29:41.677Z,24.14
2018-02-19T14:32:09.287Z,23.99
2018-02-19T14:34:35.863Z,24.06
2018-02-19T14:37:02.437Z,23.95
2018-02-19T14:39:29.012Z,23.76
2018-02-19T14:41:55.673Z,23.90
2018-02-19T14:44:22.261Z,24.04
2018-02-19T14:46:48.875Z,24.16
2018-02-19T14:49:15.698Z,24.17
2018-02-19T14:51:44.735Z,23.88
2018-02-19T14:54:11.369Z,23.27
2018-02-19T14:56:38.037Z,23.66
2018-02-19T14:59:04.630Z,23.58
2018-02-19T15:01:31.264Z,23.69
2018-02-19T15:03:57.837Z,23.68
2018-02-19T15:06:24.420Z,23.79
2018-02-19T15:08:51.087Z,23.61
2018-02-19T15:11:21.829Z,23.78
2018-02-19T15:13:48.547Z,23.76
2018-02-19T15:16:15.135Z,23.66
2018-02-19T15:18:41.707Z,23.71
2018-02-19T15:21:08.323Z,23.65
2018-02-19T15:23:34.893Z,23.60
2018-02-19T15:26:01.527Z,23.31
2018-02-19T15:28:28.121Z,23.02
2018-02-19T15:30:54.810Z,23.17
2018-02-19T15:33:21.377Z,23.04
2018-02-19T15:35:47.985Z,23.12
2018-02-19T15:38:14.653Z,23.20
2018-02-19T15:40:41.246Z,23.04
2018-02-19T15:43:07.835Z,23.34
2018-02-19T15:45:34.414Z,23.37
2018-02-19T15:48:00.999Z,23.22
2018-02-19T15:50:27.568Z,23.12
2018-02-19T15:52:54.177Z,23.37
2018-02-19T15:55:20.927Z,23.09
2018-02-19T15:57:47.658Z,22.87
2018-02-19T16:00:14.340Z,23.13
2018-02-19T16:02:40.918Z,23.25
2018-02-19T16:05:07.521Z,23.35
2018-02-19T16:07:34.088Z,23.10
2018-02-19T16:10:00.695Z,23.33
2018-02-19T16:12:27.347Z,23.34
2018-02-19T16:14:53.952Z,23.18
2018-02-19T16:17:20.628Z,23.19
2018-02-19T16:19:47.233Z,23.18
2018-02-19T16:22:13.804Z,23.22
2018-02-19T16:24:40.408Z,23.13
2018-02-19T16:27:06.972Z,23.16
2018-02-19T16:29:33.580Z,23.29
2018-02-19T16:32:00.186Z,23.02
2018-02-19T16:34:26.757Z,23.38
2018-02-19T16:36:53.473Z,23.42
2018-02-19T16:39:20.037Z,23.34
2018-02-19T16:41:46.600Z,23.41
2018-02-19T16:44:13.211Z,23.43
2018-02-19T16:46:39.815Z,23.15
2018-02-19T16:49:06.425Z,23.10
2018-02-19T16:51:33.050Z,23.12
2018-02-19T16:53:59.636Z,23.02
2018-02-19T16:56:26.259Z,22.96
2018-02-19T16:58:52.856Z,22.93
2018-02-19T17:01:19.428Z,22.94
2018-02-19T17:03:46.036Z,22.86
2018-02-19T17:06:12.612Z,22.79
2018-02-19T17:08:39.218Z,22.74
2018-02-19T17:11:05.879Z,22.69
2018-02-19T17:13:32.489Z,22.67
2018-02-19T17:15:59.046Z,22.61
2018-02-19T17:18:25.676Z,22.49
2018-02-19T17:20:52.245Z,22.42
2018-02-19T17:23:18.805Z,22.48
2018-02-19T17:25:45.378Z,22.50
2018-02-19T17:28:11.954Z,22.45
2018-02-19T17:30:38.553Z,22.40
2018-02-19T17:33:05.121Z,22.40
2018-02-19T17:35:31.726Z,22.35
2018-02-19T17:37:58.333Z,22.34
2018-02-19T17:40:24.937Z,22.31
2018-02-19T17:42:51.555Z,22.23
2018-02-19T17:45:18.116Z,22.22
2018-02-19T17:47:44.679Z,22.20
2018-02-19T17:50:11.371Z,22.19
2018-02-19T17:52:37.929Z,22.20
2018-02-19T17:55:04.518Z,22.04
2018-02-19T17:57:32.156Z,22.11
2018-02-19T17:59:58.719Z,22.04
2018-02-19T18:02:25.286Z,21.95
2018-02-19T18:04:51.853Z,22.02
2018-02-19T18:07:18.430Z,21.98
2018-02-19T18:09:45.013Z,21.95
2018-02-19T18:12:11.585Z,21.88
2018-02-19T18:14:38.144Z,21.87
2018-02-19T18:17:04.769Z,21.82
2018-02-19T18:19:31.436Z,21.80
2018-02-19T18:21:58.055Z,21.79
2018-02-19T18:24:24.625Z,21.73
2018-02-19T18:26:51.181Z,21.71
2018-02-19T18:29:17.885Z,21.72
2018-02-19T18:31:44.442Z,21.68
2018-02-19T18:34:11.063Z,21.70
2018-02-19T18:36:37.612Z,21.64
2018-02-19T18:39:04.253Z,21.63
2018-02-19T18:41:30.846Z,21.62
2018-02-19T18:43:57.402Z,21.41
2018-02-19T18:46:23.964Z,21.58
2018-02-19T18:48:50.559Z,21.53
2018-02-19T18:51:17.125Z,21.54
2018-02-19T18:53:43.713Z,21.54
2018-02-19T18:56:10.283Z,21.52
2018-02-19T18:58:36.895Z,21.49
2018-02-19T19:01:03.457Z,21.48
2018-02-19T19:03:30.023Z,21.42
2018-02-19T19:05:56.584Z,21.41
2018-02-19T19:08:23.198Z,21.41
2018-02-19T19:10:49.833Z,21.37
2018-02-19T19:13:16.393Z,21.36
2018-02-19T19:15:42.984Z,21.29
2018-02-19T19:18:09.661Z,21.31
2018-02-19T19:20:36.194Z,21.29
2018-02-19T19:23:02.793Z,21.24
2018-02-19T19:25:29.365Z,21.23
2018-02-19T19:27:55.969Z,21.20
2018-02-19T19:30:22.566Z,21.18
2018-02-19T19:32:49.125Z,21.15
2018-02-19T19:35:15.734Z,21.12
2018-02-19T19:37:42.422Z,21.11
2018-02-19T19:40:08.981Z,21.09
2018-02-19T19:42:35.553Z,21.03
2018-02-19T19:45:02.150Z,21.05
2018-02-19T19:47:28.757Z,21.03
2018-02-19T19:49:55.366Z,21.03
2018-02-19T19:52:21.928Z,20.99
2018-02-19T19:54:48.571Z,20.98
2018-02-19T19:57:15.131Z,20.96
2018-02-19T19:59:41.841Z,20.91
2018-02-19T20:02:08.574Z,20.92
2018-02-19T20:04:35.138Z,20.94
2018-02-19T20:07:01.742Z,20.90
2018-02-19T20:09:28.301Z,20.86
2018-02-19T20:11:54.870Z,20.86
2018-02-19T20:14:21.430Z,20.86
2018-02-19T20:16:48.041Z,20.83
2018-02-19T20:19:14.622Z,20.85
2018-02-19T20:21:41.254Z,20.83
2018-02-19T20:24:07.867Z,20.82
2018-02-19T20:26:34.425Z,20.81
2018-02-19T20:29:01.080Z,20.78
2018-02-19T20:31:27.642Z,20.81
2018-02-19T20:33:54.208Z,20.76
2018-02-19T20:36:20.885Z,20.74
2018-02-19T20:38:47.494Z,20.76
2018-02-19T20:41:14.086Z,20.75
2018-02-19T20:43:40.685Z,20.76
2018-02-19T20:46:07.269Z,20.74
2018-02-19T20:48:33.834Z,20.74
2018-02-19T20:51:00.428Z,20.73
2018-02-19T20:53:26.984Z,20.70
2018-02-19T20:55:53.647Z,20.67
2018-02-19T20:58:20.278Z,20.65
2018-02-19T21:00:46.895Z,20.61
2018-02-19T21:03:13.456Z,20.59
2018-02-19T21:05:40.030Z,20.56
2018-02-19T21:08:06.603Z,20.54
2018-02-19T21:10:33.320Z,20.47
2018-02-19T21:12:59.927Z,20.53
2018-02-19T21:15:26.475Z,20.47
2018-02-19T21:17:53.037Z,20.50
2018-02-19T21:20:19.608Z,20.46
2018-02-19T21:22:46.170Z,20.44
2018-02-19T21:25:12.771Z,20.44
2018-02-19T21:27:39.352Z,20.45
2018-02-19T21:30:05.926Z,20.37
2018-02-19T21:32:32.516Z,20.38
2018-02-19T21:34:59.133Z,20.35
2018-02-19T21:37:25.702Z,20.36
2018-02-19T21:39:52.265Z,20.33
2018-02-19T21:42:18.875Z,20.27
2018-02-19T21:44:45.439Z,20.26
2018-02-19T21:47:12.001Z,20.24
2018-02-19T21:49:38.574Z,20.29
2018-02-19T21:52:05.182Z,20.25
2018-02-19T21:54:31.745Z,20.23
2018-02-19T21:56:58.311Z,20.24
2018-02-19T21:59:24.934Z,20.21
2018-02-19T22:01:51.533Z,20.22
2018-02-19T22:04:18.118Z,20.22
2018-02-19T22:06:44.675Z,20.21
2018-02-19T22:09:11.246Z,20.20
2018-02-19T22:11:37.804Z,20.19
2018-02-19T22:14:04.373Z,20.17
2018-02-19T22:16:30.958Z,20.20
2018-02-19T22:18:57.558Z,20.20
2018-02-19T22:21:24.124Z,20.19
2018-02-19T22:23:50.734Z,20.17
2018-02-19T22:26:17.301Z,20.18
2018-02-19T22:28:43.890Z,20.19
2018-02-19T22:31:10.486Z,20.20
2018-02-19T22:33:37.085Z,20.19
2018-02-19T22:36:03.653Z,20.18
2018-02-19T22:38:30.216Z,20.15
2018-02-19T22:40:56.779Z,20.14
2018-02-19T22:43:23.417Z,20.18
2018-02-19T22:45:49.976Z,20.18
2018-02-19T22:48:16.543Z,20.14
2018-02-19T22:50:43.119Z,20.15
2018-02-19T22:53:09.680Z,20.14
2018-02-19T22:55:36.261Z,20.17
2018-02-19T22:58:02.830Z,20.10
2018-02-19T23:00:29.401Z,20.13
2018-02-19T23:02:55.968Z,20.11
2018-02-19T23:05:22.534Z,20.11
2018-02-19T23:07:49.117Z,20.11
2018-02-19T23:10:15.713Z,20.11
2018-02-19T23:12:42.339Z,20.08
2018-02-19T23:15:08.896Z,20.08
2018-02-19T23:17:35.505Z,20.07
2018-02-19T23:20:02.067Z,20.06
2018-02-19T23:22:28.630Z,20.05
2018-02-19T23:24:55.244Z,20.02
2018-02-19T23:27:21.860Z,19.98
2018-02-19T23:29:48.478Z,19.99
2018-02-19T23:32:15.150Z,19.96
2018-02-19T23:34:41.752Z,19.91
2018-02-19T23:37:08.367Z,19.90
2018-02-19T23:39:34.955Z,19.87
2018-02-19T23:42:01.567Z,19.87
2018-02-19T23:44:28.129Z,19.83
2018-02-19T23:46:54.828Z,19.83
2018-02-19T23:49:21.396Z,19.80
2018-02-19T23:51:48.019Z,19.79
2018-02-19T23:54:14.623Z,19.77
2018-02-19T23:56:41.187Z,19.75
2018-02-19T23:59:07.793Z,19.70
